Time;durP1;ratioP1;P1;durP2;ratioP2;P2;SDS_P1;SDS_P2;PMS_P1;PMS_P2;Temp;Humidity;BMP_temperature;BMP_pressure;BME280_temperature;BME280_humidity;BME280_pressure;Samples;Min_cycle;Max_cycle;Signal;HPM_P1;HPM_P2
2022/02/24 00:00:22;;;;;;;;;;;;;;;5.26;100.00;98136.69;5061743;28;19924;-77
2022/02/24 00:02:49;;;;;;;;;;;;;;;5.47;100.00;98141.22;5062072;28;20409;-77
2022/02/24 00:05:17;;;;;;;;;;;;;;;5.27;100.00;98127.19;5079495;28;19928;-77
2022/02/24 00:07:45;;;;;;;;;;;;;;;5.37;100.00;98131.03;5097368;28;19971;-78
2022/02/24 00:10:13;;;;;;;;;;;;;;;5.76;100.00;98139.72;5079179;28;19990;-78
2022/02/24 00:12:41;;;;;;;;;;;;;;;5.77;100.00;98132.19;5079388;28;19928;-78
2022/02/24 00:15:09;;;;;;;;;;;;;;;5.72;100.00;98130.66;5097215;28;20309;-78
2022/02/24 00:17:37;;;;;;;;;;;;;;;5.57;100.00;98124.47;5097028;28;19924;-78
2022/02/24 00:20:05;;;;;;;;;;;;;;;5.80;100.00;98125.81;5097287;28;19924;-78
2022/02/24 00:22:32;;;;;;;;;;;;;;;5.75;100.00;98124.28;5079192;28;19930;-78
2022/02/24 00:25:00;;;;;;;;;;;;;;;5.65;100.00;98118.88;5097007;28;19969;-78
2022/02/24 00:27:27;;;;;;;;;;;;;;;5.76;100.00;98111.19;5096902;28;19924;-78
2022/02/24 00:29:57;;;;;;;;;;;;;;;5.94;100.00;98112.59;5081671;28;20451;-78
2022/02/24 00:32:24;;;;;;;;;;;;;;;6.01;100.00;98111.72;5076502;28;20023;-78
2022/02/24 00:34:51;;;;;;;;;;;;;;;5.86;100.00;98102.78;5058866;28;19924;-78
2022/02/24 00:37:18;;;;;;;;;;;;;;;5.86;100.00;98107.56;5091883;28;20272;-78
2022/02/24 00:39:46;;;;;;;;;;;;;;;5.97;100.00;98108.22;5076496;28;20013;-78
2022/02/24 00:42:14;;;;;;;;;;;;;;;6.14;100.00;98112.72;5076524;28;19924;-78
2022/02/24 00:44:42;;;;;;;;;;;;;;;6.08;100.00;98111.63;5076316;28;20007;-78
2022/02/24 00:47:12;;;;;;;;;;;;;;;6.18;100.00;98113.47;5075070;28;19924;-78
2022/02/24 00:49:39;;;;;;;;;;;;;;;6.29;100.00;98108.56;5076364;28;19928;-78
2022/02/24 00:52:06;;;;;;;;;;;;;;;6.13;100.00;98089.78;5075187;28;20462;-78
2022/02/24 00:54:33;;;;;;;;;;;;;;;6.08;100.00;98078.34;5058684;28;20257;-78
2022/02/24 00:57:00;;;;;;;;;;;;;;;6.28;100.00;98070.94;5076101;28;20402;-78
2022/02/24 00:59:27;;;;;;;;;;;;;;;6.36;100.00;98050.97;5058372;28;19925;-78
2022/02/24 01:01:54;;;;;;;;;;;;;;;6.26;100.00;98048.38;5057824;28;20007;-78
2022/02/24 01:04:22;;;;;;;;;;;;;;;6.32;100.00;98057.78;5076156;28;19931;-78
2022/02/24 01:06:49;;;;;;;;;;;;;;;6.14;100.00;98035.88;5091059;28;19996;-79
2022/02/24 01:09:16;;;;;;;;;;;;;;;6.18;100.00;98058.00;5058094;28;19928;-78
2022/02/24 01:11:44;;;;;;;;;;;;;;;6.17;100.00;98056.41;5075959;28;20414;-78
2022/02/24 01:14:11;;;;;;;;;;;;;;;6.09;100.00;98066.06;5075939;28;19960;-78
2022/02/24 01:16:38;;;;;;;;;;;;;;;6.28;100.00;98060.63;5075512;28;19924;-78
2022/02/24 01:19:05;;;;;;;;;;;;;;;6.26;100.00;98065.00;5057903;28;19971;-78
2022/02/24 01:21:34;;;;;;;;;;;;;;;6.15;100.00;98069.94;5075626;28;19928;-78
2022/02/24 01:24:01;;;;;;;;;;;;;;;6.24;100.00;98059.13;5075684;28;20011;-78
2022/02/24 01:26:28;;;;;;;;;;;;;;;6.36;100.00;98064.09;5080104;28;20367;-78
2022/02/24 01:28:55;;;;;;;;;;;;;;;6.39;100.00;98058.47;5094623;28;20396;-78
2022/02/24 01:31:23;;;;;;;;;;;;;;;6.16;100.00;98065.97;5077461;28;20407;-79
2022/02/24 01:33:50;;;;;;;;;;;;;;;6.24;100.00;98059.13;5077561;28;19973;-78
2022/02/24 01:36:17;;;;;;;;;;;;;;;6.54;100.00;98064.59;5077741;28;19951;-78
2022/02/24 01:38:44;;;;;;;;;;;;;;;6.30;100.00;98049.13;5095633;28;19932;-78
2022/02/24 01:41:12;;;;;;;;;;;;;;;6.33;100.00;98037.19;5095527;28;19928;-78
2022/02/24 01:43:42;;;;;;;;;;;;;;;6.35;100.00;98052.19;5095218;28;19971;-78
2022/02/24 01:46:09;;;;;;;;;;;;;;;6.44;100.00;98049.66;5060602;28;20405;-78
2022/02/24 01:48:37;;;;;;;;;;;;;;;6.13;100.00;98039.06;5095382;28;19928;-78
2022/02/24 01:51:04;;;;;;;;;;;;;;;6.17;100.00;98025.91;5095282;28;19924;-79
2022/02/24 01:53:33;;;;;;;;;;;;;;;6.03;100.00;98026.16;5077380;28;19931;-78
2022/02/24 01:56:00;;;;;;;;;;;;;;;6.03;100.00;98017.81;5077014;28;19931;-78
2022/02/24 01:58:29;;;;;;;;;;;;;;;6.01;100.00;98009.13;5095005;28;20501;-78
2022/02/24 02:00:57;;;;;;;;;;;;;;;5.63;100.00;97998.13;5095039;28;20010;-78
2022/02/24 02:03:24;;;;;;;;;;;;;;;5.79;100.00;97993.97;5095159;28;19950;-78
2022/02/24 02:05:51;;;;;;;;;;;;;;;5.71;100.00;98018.22;5076865;28;19939;-78
2022/02/24 02:08:19;;;;;;;;;;;;;;;6.04;100.00;97995.22;5077129;28;19931;-78
2022/02/24 02:10:46;;;;;;;;;;;;;;;6.12;100.00;97999.44;5076872;28;19928;-78
2022/02/24 02:13:13;;;;;;;;;;;;;;;6.25;100.00;97991.31;5094834;28;19931;-79
2022/02/24 02:15:40;;;;;;;;;;;;;;;6.22;100.00;97992.16;5060109;28;19928;-78
2022/02/24 02:18:07;;;;;;;;;;;;;;;6.57;100.00;97986.03;5094709;28;19971;-79
2022/02/24 02:20:39;;;;;;;;;;;;;;;6.83;100.00;97976.84;5076574;28;19924;-78
2022/02/24 02:23:06;;;;;;;;;;;;;;;6.80;100.00;97961.03;5076609;28;20032;-79
2022/02/24 02:25:33;;;;;;;;;;;;;;;6.69;100.00;97964.03;5094528;28;20294;-79
2022/02/24 02:28:01;;;;;;;;;;;;;;;6.92;100.00;97952.84;5094460;28;19924;-79
2022/02/24 02:30:28;;;;;;;;;;;;;;;6.77;100.00;97950.78;5094527;28;19981;-78
2022/02/24 02:32:55;;;;;;;;;;;;;;;6.70;100.00;97945.34;5094542;28;19924;-79
2022/02/24 02:35:23;;;;;;;;;;;;;;;6.90;100.00;97932.28;5094302;28;20375;-79
2022/02/24 02:37:50;;;;;;;;;;;;;;;7.03;100.00;97930.44;5094467;28;20398;-79
2022/02/24 02:40:17;;;;;;;;;;;;;;;6.83;100.00;97938.00;5094197;28;19924;-79
2022/02/24 02:42:44;;;;;;;;;;;;;;;6.45;100.00;97931.16;5075605;28;20018;-78
2022/02/24 02:45:11;;;;;;;;;;;;;;;6.34;100.00;97922.22;5075923;28;19963;-78
2022/02/24 02:47:38;;;;;;;;;;;;;;;6.52;100.00;97925.47;5093942;28;19974;-79
2022/02/24 02:50:06;;;;;;;;;;;;;;;6.58;100.00;97915.44;5075722;28;20131;-79
2022/02/24 02:52:34;;;;;;;;;;;;;;;6.60;100.00;97896.38;5093733;28;19924;-79
2022/02/24 02:55:04;;;;;;;;;;;;;;;6.81;100.00;97887.66;5076315;28;19928;-79
2022/02/24 02:57:31;;;;;;;;;;;;;;;6.90;100.00;97885.88;5093809;28;19977;-79
2022/02/24 02:59:58;;;;;;;;;;;;;;;7.10;100.00;97880.31;5076088;28;19924;-79
2022/02/24 03:02:25;;;;;;;;;;;;;;;6.86;100.00;97878.81;5076190;28;19924;-79
2022/02/24 03:04:53;;;;;;;;;;;;;;;7.03;100.00;97880.44;5109973;28;19930;-79
2022/02/24 03:07:21;;;;;;;;;;;;;;;7.12;100.00;97877.88;5109391;28;19963;-79
2022/02/24 03:09:49;;;;;;;;;;;;;;;6.85;100.00;97883.59;5093896;28;19924;-79
2022/02/24 03:12:16;;;;;;;;;;;;;;;6.94;100.00;97888.56;5075543;28;19928;-78
2022/02/24 03:14:46;;;;;;;;;;;;;;;6.74;100.00;97877.44;5075677;28;19928;-79
2022/02/24 03:17:14;;;;;;;;;;;;;;;6.83;100.00;97871.34;5093717;28;19924;-79
2022/02/24 03:19:42;;;;;;;;;;;;;;;6.51;100.00;97868.41;5094040;28;19956;-79
2022/02/24 03:22:10;;;;;;;;;;;;;;;6.62;100.00;97866.22;5075753;28;19931;-79
2022/02/24 03:24:38;;;;;;;;;;;;;;;6.55;100.00;97856.03;5076126;28;19931;-78
2022/02/24 03:27:05;;;;;;;;;;;;;;;6.65;100.00;97859.81;5075687;28;19924;-78
2022/02/24 03:29:33;;;;;;;;;;;;;;;6.60;100.00;97863.09;5076223;28;19930;-79
2022/02/24 03:32:00;;;;;;;;;;;;;;;6.83;100.00;97860.25;5075812;28;20317;-79
2022/02/24 03:34:28;;;;;;;;;;;;;;;6.94;100.00;97860.78;5093807;28;19924;-79
2022/02/24 03:36:55;;;;;;;;;;;;;;;6.90;100.00;97854.53;5075881;28;19924;-79
2022/02/24 03:39:22;;;;;;;;;;;;;;;6.79;100.00;97851.97;5093732;28;19973;-79
2022/02/24 03:41:51;;;;;;;;;;;;;;;6.57;100.00;97856.38;5093497;28;19932;-79
2022/02/24 03:44:18;;;;;;;;;;;;;;;6.80;100.00;97831.31;5093553;28;19924;-79
2022/02/24 03:46:46;;;;;;;;;;;;;;;6.66;100.00;97844.72;5093498;28;19931;-79
2022/02/24 03:49:13;;;;;;;;;;;;;;;6.70;100.00;97839.88;5093636;28;19924;-78
2022/02/24 03:51:42;;;;;;;;;;;;;;;6.52;100.00;97839.44;5093576;28;20012;-79
2022/02/24 03:54:09;;;;;;;;;;;;;;;6.50;100.00;97833.53;5093606;28;19924;-78
2022/02/24 03:56:36;;;;;;;;;;;;;;;6.70;100.00;97828.78;5093280;28;20028;-79
2022/02/24 03:59:03;;;;;;;;;;;;;;;6.42;100.00;97835.66;5093499;28;20015;-79
2022/02/24 04:01:30;;;;;;;;;;;;;;;6.20;100.00;97828.16;5058851;28;20334;-78
2022/02/24 04:03:58;;;;;;;;;;;;;;;6.15;100.00;97825.88;5058878;28;19931;-79
2022/02/24 04:06:25;;;;;;;;;;;;;;;6.34;100.00;97828.69;5093350;28;20013;-79
2022/02/24 04:08:52;;;;;;;;;;;;;;;6.33;100.00;97832.66;5093365;28;20448;-79
2022/02/24 04:11:19;;;;;;;;;;;;;;;6.71;100.00;97830.34;5075689;28;19931;-79
2022/02/24 04:13:53;;;;;;;;;;;;;;;6.50;100.00;97819.66;5076553;28;20276;-78
2022/02/24 04:16:21;;;;;;;;;;;;;;;6.39;100.00;97816.31;5093232;28;20007;-78
2022/02/24 04:18:48;;;;;;;;;;;;;;;6.42;100.00;97801.59;5093358;28;19977;-79
2022/02/24 04:21:15;;;;;;;;;;;;;;;6.25;100.00;97813.81;5093124;28;20018;-79
2022/02/24 04:23:42;;;;;;;;;;;;;;;6.33;100.00;97810.47;5093377;28;19928;-79
2022/02/24 04:26:09;;;;;;;;;;;;;;;6.29;100.00;97817.28;5093244;28;19944;-79
2022/02/24 04:28:37;;;;;;;;;;;;;;;6.41;100.00;97811.09;5078355;28;20018;-78
2022/02/24 04:31:05;;;;;;;;;;;;;;;6.51;100.00;97807.38;5096929;28;19967;-79
2022/02/24 04:33:32;;;;;;;;;;;;;;;6.12;100.00;97801.78;5079034;28;20022;-79
2022/02/24 04:35:59;;;;;;;;;;;;;;;6.18;100.00;97792.53;5096944;28;19924;-79
2022/02/24 04:38:26;;;;;;;;;;;;;;;6.24;100.00;97793.59;5078843;28;20032;-79
2022/02/24 04:40:54;;;;;;;;;;;;;;;6.23;100.00;97797.59;5078742;28;19970;-79
2022/02/24 04:43:21;;;;;;;;;;;;;;;6.19;100.00;97791.34;5096773;28;19928;-78
2022/02/24 04:45:50;;;;;;;;;;;;;;;6.36;100.00;97800.53;5096590;28;19962;-79
2022/02/24 04:48:19;;;;;;;;;;;;;;;6.14;100.00;97797.38;5096637;28;19924;-79
2022/02/24 04:50:48;;;;;;;;;;;;;;;6.06;100.00;97784.06;5096752;28;19932;-79
2022/02/24 04:53:16;;;;;;;;;;;;;;;5.84;100.00;97794.75;5096452;28;19950;-79
2022/02/24 04:55:43;;;;;;;;;;;;;;;5.91;100.00;97789.06;5078637;28;19924;-79
2022/02/24 04:58:10;;;;;;;;;;;;;;;6.01;100.00;97790.09;5096512;28;19928;-79
2022/02/24 05:00:38;;;;;;;;;;;;;;;6.23;100.00;97805.13;5096599;28;19935;-79
2022/02/24 05:03:05;;;;;;;;;;;;;;;6.33;100.00;97784.72;5096632;28;19924;-79
2022/02/24 05:05:32;;;;;;;;;;;;;;;6.03;100.00;97790.47;5078466;28;19930;-79
2022/02/24 05:08:00;;;;;;;;;;;;;;;6.17;100.00;97788.19;5078135;28;19924;-79
2022/02/24 05:10:27;;;;;;;;;;;;;;;6.05;100.00;97783.28;5096352;28;19928;-79
2022/02/24 05:12:55;;;;;;;;;;;;;;;5.76;100.00;97781.38;5096279;28;19924;-79
2022/02/24 05:15:22;;;;;;;;;;;;;;;5.69;100.00;97774.00;5096220;28;19924;-78
2022/02/24 05:17:49;;;;;;;;;;;;;;;5.91;100.00;97772.44;5096296;28;19924;-79
2022/02/24 05:20:17;;;;;;;;;;;;;;;5.80;100.00;97782.13;5071159;28;19928;-79
2022/02/24 05:22:44;;;;;;;;;;;;;;;5.93;100.00;97780.31;5095820;28;19924;-79
2022/02/24 05:25:13;;;;;;;;;;;;;;;5.79;100.00;97772.22;5094843;28;20019;-79
2022/02/24 05:27:42;;;;;;;;;;;;;;;5.50;100.00;97781.03;5095896;28;19924;-79
2022/02/24 05:30:10;;;;;;;;;;;;;;;5.54;100.00;97781.75;5096073;28;19970;-79
2022/02/24 05:32:38;;;;;;;;;;;;;;;5.63;100.00;97770.91;5078076;28;19924;-79
2022/02/24 05:35:06;;;;;;;;;;;;;;;5.68;100.00;97768.88;5096073;28;19931;-79
2022/02/24 05:37:34;;;;;;;;;;;;;;;5.46;100.00;97769.22;5060979;28;20015;-78
2022/02/24 05:40:03;;;;;;;;;;;;;;;5.60;100.00;97763.44;5095474;28;20016;-79
2022/02/24 05:42:30;;;;;;;;;;;;;;;5.50;100.00;97769.94;5095645;28;20011;-78
2022/02/24 05:44:57;;;;;;;;;;;;;;;5.30;100.00;97774.63;5077530;28;19989;-79
2022/02/24 05:47:25;;;;;;;;;;;;;;;5.18;100.00;97766.91;5077205;28;19924;-78
2022/02/24 05:49:52;;;;;;;;;;;;;;;5.18;100.00;97761.34;5077703;28;19924;-79
2022/02/24 05:52:19;;;;;;;;;;;;;;;5.37;100.00;97748.81;5095350;28;19928;-79
2022/02/24 05:54:47;;;;;;;;;;;;;;;5.47;100.00;97748.63;5077784;28;19924;-79
2022/02/24 05:57:14;;;;;;;;;;;;;;;5.66;100.00;97747.13;5095341;28;20382;-78
2022/02/24 05:59:41;;;;;;;;;;;;;;;5.54;100.00;97745.72;5072387;28;19924;-79
2022/02/24 06:02:08;;;;;;;;;;;;;;;5.48;100.00;97755.72;5077035;28;19969;-79
2022/02/24 06:04:35;;;;;;;;;;;;;;;5.54;100.00;97753.28;5077091;28;19930;-79
2022/02/24 06:07:03;;;;;;;;;;;;;;;5.36;100.00;97742.47;5095150;28;19980;-79
2022/02/24 06:09:30;;;;;;;;;;;;;;;5.04;100.00;97742.19;5094912;28;19924;-78
2022/02/24 06:12:01;;;;;;;;;;;;;;;5.40;100.00;97737.69;5077263;28;19924;-78
2022/02/24 06:14:28;;;;;;;;;;;;;;;5.47;100.00;97739.53;5095081;28;19924;-78
2022/02/24 06:16:56;;;;;;;;;;;;;;;5.63;100.00;97737.66;5094946;28;19924;-79
2022/02/24 06:19:23;;;;;;;;;;;;;;;5.57;100.00;97735.81;5094632;28;19977;-79
2022/02/24 06:21:52;;;;;;;;;;;;;;;5.69;100.00;97737.19;5076882;28;19924;-79
2022/02/24 06:24:19;;;;;;;;;;;;;;;5.51;100.00;97738.25;5110635;28;19924;-79
2022/02/24 06:26:47;;;;;;;;;;;;;;;5.51;100.00;97726.41;5110351;28;19971;-78
2022/02/24 06:29:14;;;;;;;;;;;;;;;5.20;100.00;97738.78;5094785;28;19924;-79
2022/02/24 06:31:41;;;;;;;;;;;;;;;4.94;100.00;97742.34;5094695;28;20482;-79
2022/02/24 06:34:08;;;;;;;;;;;;;;;4.94;100.00;97739.56;5094448;28;19924;-78
2022/02/24 06:36:36;;;;;;;;;;;;;;;4.97;100.00;97745.06;5094625;28;19924;-78
2022/02/24 06:39:04;;;;;;;;;;;;;;;4.52;100.00;97745.72;5092137;28;20012;-78
2022/02/24 06:41:32;;;;;;;;;;;;;;;4.63;100.00;97744.38;5070683;28;19956;-80
2022/02/24 06:43:59;;;;;;;;;;;;;;;4.67;100.00;97736.00;5074213;28;19924;-78
2022/02/24 06:46:26;;;;;;;;;;;;;;;4.83;100.00;97733.44;5076244;28;19928;-78
2022/02/24 06:48:53;;;;;;;;;;;;;;;5.08;100.00;97744.91;5056005;28;20340;-76
2022/02/24 06:51:20;;;;;;;;;;;;;;;4.65;100.00;97747.50;5073122;28;19925;-79
2022/02/24 06:53:47;;;;;;;;;;;;;;;3.87;100.00;97735.81;5074163;28;19924;-79
2022/02/24 06:56:14;;;;;;;;;;;;;;;4.23;100.00;97747.25;5080434;28;19931;-80
2022/02/24 06:58:42;;;;;;;;;;;;;;;3.85;100.00;97754.03;5072777;28;20414;-80
2022/02/24 07:01:09;;;;;;;;;;;;;;;3.70;100.00;97736.78;5073376;28;19946;-79
2022/02/24 07:03:37;;;;;;;;;;;;;;;3.94;100.00;97752.31;5091086;28;19923;-78
2022/02/24 07:06:04;;;;;;;;;;;;;;;3.90;100.00;97743.28;5090338;28;19924;-79
2022/02/24 07:08:33;;;;;;;;;;;;;;;4.26;100.00;97729.84;5072428;28;20501;-79
2022/02/24 07:11:02;;;;;;;;;;;;;;;4.30;100.00;97739.66;5073059;28;19924;-79
2022/02/24 07:13:29;;;;;;;;;;;;;;;4.20;100.00;97743.34;5072311;28;20059;-79
2022/02/24 07:16:07;;;;;;;;;;;;;;;4.23;100.00;97748.03;5090326;28;20548;-79
2022/02/24 07:18:35;;;;;;;;;;;;;;;4.37;100.00;97769.22;5090434;28;19973;-79
2022/02/24 07:21:02;;;;;;;;;;;;;;;4.27;100.00;97759.84;5056662;28;20339;-79
2022/02/24 07:23:29;;;;;;;;;;;;;;;4.47;100.00;97774.59;5092026;28;20011;-79
2022/02/24 07:25:56;;;;;;;;;;;;;;;4.42;100.00;97760.47;5093583;28;20050;-79
2022/02/24 07:28:23;;;;;;;;;;;;;;;4.22;100.00;97765.84;5076004;28;20302;-81
2022/02/24 07:30:50;;;;;;;;;;;;;;;4.27;100.00;97754.31;5094132;28;19925;-80
2022/02/24 07:33:17;;;;;;;;;;;;;;;4.30;100.00;97753.47;5075985;28;19942;-80
2022/02/24 07:35:44;;;;;;;;;;;;;;;4.42;100.00;97749.41;5085680;28;19924;-80
2022/02/24 07:38:11;;;;;;;;;;;;;;;4.42;100.00;97749.41;5084331;28;19925;-81
2022/02/24 07:40:39;;;;;;;;;;;;;;;4.30;100.00;97730.59;5092703;28;19924;-79
2022/02/24 07:43:06;;;;;;;;;;;;;;;4.57;100.00;97737.75;5075642;28;19928;-85
2022/02/24 07:45:33;;;;;;;;;;;;;;;4.60;100.00;97736.91;5075743;28;19924;-81
2022/02/24 07:48:01;;;;;;;;;;;;;;;4.58;100.00;97730.22;5074300;28;19924;-80
2022/02/24 07:50:28;;;;;;;;;;;;;;;4.44;100.00;97725.66;5057797;28;19963;-80
2022/02/24 07:52:55;;;;;;;;;;;;;;;4.27;100.00;97725.88;5093373;28;19969;-80
2022/02/24 07:55:22;;;;;;;;;;;;;;;4.09;100.00;97723.31;5075930;28;19931;-80
2022/02/24 07:57:50;;;;;;;;;;;;;;;4.12;100.00;97716.97;5093687;28;19923;-80
2022/02/24 08:00:17;;;;;;;;;;;;;;;4.02;100.00;97728.94;5075725;28;19990;-80
2022/02/24 08:02:45;;;;;;;;;;;;;;;4.35;100.00;97725.38;5096882;28;19924;-80
2022/02/24 08:05:12;;;;;;;;;;;;;;;4.16;100.00;97745.38;5079813;28;19947;-80
2022/02/24 08:07:39;;;;;;;;;;;;;;;4.17;100.00;97749.69;5097421;28;19932;-80
2022/02/24 08:10:06;;;;;;;;;;;;;;;4.36;100.00;97751.81;5097643;28;19960;-80
2022/02/24 08:12:39;;;;;;;;;;;;;;;4.40;100.00;97737.97;5096173;28;19924;-80
2022/02/24 08:15:07;;;;;;;;;;;;;;;4.52;100.00;97749.25;5079517;28;19935;-80
2022/02/24 08:17:34;;;;;;;;;;;;;;;4.69;100.00;97742.72;5075636;28;19924;-80
2022/02/24 08:20:05;;;;;;;;;;;;;;;4.73;100.00;97737.13;5097066;28;20356;-80
2022/02/24 08:22:32;;;;;;;;;;;;;;;4.89;100.00;97735.28;5097249;28;20045;-80
2022/02/24 08:24:59;;;;;;;;;;;;;;;4.52;100.00;97734.66;5097304;28;19970;-80
2022/02/24 08:27:29;;;;;;;;;;;;;;;4.71;100.00;97750.59;5079303;28;19952;-79
2022/02/24 08:29:57;;;;;;;;;;;;;;;4.63;100.00;97738.84;5078771;28;19989;-79
2022/02/24 08:32:24;;;;;;;;;;;;;;;4.68;100.00;97741.13;5078652;28;20360;-79
2022/02/24 08:34:51;;;;;;;;;;;;;;;4.84;100.00;97743.28;5097216;28;19932;-86
2022/02/24 08:37:22;;;;;;;;;;;;;;;4.84;100.00;97733.03;5063619;28;19931;-81
2022/02/24 08:39:49;;;;;;;;;;;;;;;4.96;100.00;97739.94;5097189;28;20310;-81
2022/02/24 08:42:17;;;;;;;;;;;;;;;5.08;100.00;97754.00;5112233;28;19928;-81
2022/02/24 08:44:44;;;;;;;;;;;;;;;4.91;100.00;97743.19;5097650;28;19958;-81
2022/02/24 08:47:25;;;;;;;;;;;;;;;5.13;100.00;97756.31;5081015;28;19932;-81
2022/02/24 08:49:52;;;;;;;;;;;;;;;5.22;100.00;97759.34;5078879;28;19924;-81
2022/02/24 08:52:26;;;;;;;;;;;;;;;5.45;100.00;97759.34;5097138;28;19931;-81
2022/02/24 08:54:54;;;;;;;;;;;;;;;5.56;100.00;97761.94;5094004;28;19923;-81
2022/02/24 08:57:21;;;;;;;;;;;;;;;5.93;100.00;97749.84;5058851;28;20322;-81
2022/02/24 08:59:48;;;;;;;;;;;;;;;5.78;100.00;97760.38;5077477;28;20311;-81
2022/02/24 09:02:16;;;;;;;;;;;;;;;5.77;100.00;97755.25;5075195;28;19963;-81
2022/02/24 09:04:43;;;;;;;;;;;;;;;5.51;100.00;97770.75;5059543;28;20395;-81
2022/02/24 09:07:10;;;;;;;;;;;;;;;5.51;100.00;97768.72;5076321;28;19924;-81
2022/02/24 09:09:37;;;;;;;;;;;;;;;5.70;100.00;97767.22;5078273;28;20401;-80
2022/02/24 09:12:04;;;;;;;;;;;;;;;5.25;100.00;97779.84;5096143;28;19947;-80
2022/02/24 09:14:31;;;;;;;;;;;;;;;5.49;100.00;97782.25;5077408;28;20279;-80
2022/02/24 09:16:59;;;;;;;;;;;;;;;5.34;100.00;97783.69;5089359;28;20433;-79
2022/02/24 09:19:26;;;;;;;;;;;;;;;5.57;100.00;97785.69;5061501;28;19928;-79
2022/02/24 09:21:55;;;;;;;;;;;;;;;5.62;100.00;97798.28;5058257;28;19931;-80
2022/02/24 09:24:22;;;;;;;;;;;;;;;6.11;100.00;97789.91;5091644;28;20461;-78
2022/02/24 09:26:49;;;;;;;;;;;;;;;6.18;100.00;97786.22;5092687;28;20023;-80
2022/02/24 09:29:17;;;;;;;;;;;;;;;6.34;100.00;97786.28;5077741;28;20425;-80
2022/02/24 09:31:44;;;;;;;;;;;;;;;6.07;100.00;97769.78;5111522;28;19931;-80
2022/02/24 09:34:11;;;;;;;;;;;;;;;5.91;100.00;97780.00;5095868;28;19925;-80
2022/02/24 09:36:38;;;;;;;;;;;;;;;6.22;100.00;97781.38;5094330;28;20379;-79
2022/02/24 09:39:05;;;;;;;;;;;;;;;6.24;100.00;97785.28;5095877;28;20294;-79
2022/02/24 09:41:33;;;;;;;;;;;;;;;6.36;100.00;97770.00;5095837;28;20014;-79
2022/02/24 09:44:00;;;;;;;;;;;;;;;6.52;100.00;97762.53;5111164;28;20301;-79
2022/02/24 09:46:29;;;;;;;;;;;;;;;6.94;100.00;97764.41;5077378;28;19948;-79
2022/02/24 09:49:01;;;;;;;;;;;;;;;6.73;100.00;97756.53;5078039;28;20343;-79
2022/02/24 09:51:30;;;;;;;;;;;;;;;6.57;100.00;97758.47;5095473;28;20280;-79
2022/02/24 09:53:57;;;;;;;;;;;;;;;6.44;100.00;97749.22;5095183;28;19932;-79
2022/02/24 09:56:29;;;;;;;;;;;;;;;6.33;100.00;97751.44;5094380;28;20356;-79
2022/02/24 09:58:57;;;;;;;;;;;;;;;6.77;100.00;97767.56;5074912;28;20382;-79
2022/02/24 10:01:25;;;;;;;;;;;;;;;7.07;100.00;97745.06;5075034;28;20372;-79
2022/02/24 10:03:53;;;;;;;;;;;;;;;6.92;100.00;97746.63;5057385;28;19978;-79
2022/02/24 10:06:31;;;;;;;;;;;;;;;7.23;100.00;97742.31;5074917;28;19928;-78
2022/02/24 10:08:58;;;;;;;;;;;;;;;7.07;100.00;97745.06;5075115;28;19924;-79
2022/02/24 10:11:27;;;;;;;;;;;;;;;7.54;100.00;97751.09;5040102;28;20346;-79
2022/02/24 10:13:58;;;;;;;;;;;;;;;7.66;100.00;97762.31;5074951;28;20453;-78
2022/02/24 10:16:25;;;;;;;;;;;;;;;7.68;100.00;97750.75;5074825;28;19970;-79
2022/02/24 10:18:53;;;;;;;;;;;;;;;7.70;100.00;97756.63;5074621;28;20356;-79
2022/02/24 10:21:21;;;;;;;;;;;;;;;6.98;100.00;97759.53;5074646;28;20398;-79
2022/02/24 10:23:51;;;;;;;;;;;;;;;7.20;100.00;97768.97;5070059;28;19928;-79
2022/02/24 10:26:19;;;;;;;;;;;;;;;7.12;100.00;97758.44;5092936;28;19928;-79
2022/02/24 10:28:51;;;;;;;;;;;;;;;6.01;100.00;97770.69;5094838;28;19931;-78
2022/02/24 10:31:23;;;;;;;;;;;;;;;5.49;100.00;97789.75;5076744;28;19924;-79
2022/02/24 10:34:06;;;;;;;;;;;;;;;4.85;100.00;97814.84;5060521;28;19924;-79
2022/02/24 10:36:34;;;;;;;;;;;;;;;3.47;100.00;97849.81;5095199;28;20249;-78
2022/02/24 10:39:09;;;;;;;;;;;;;;;3.52;100.00;97833.63;5094882;28;19938;-78
2022/02/24 10:41:36;;;;;;;;;;;;;;;3.24;100.00;97833.81;5076990;28;20346;-79
2022/02/24 10:44:19;;;;;;;;;;;;;;;3.32;100.00;97829.03;5094641;28;20268;-79
2022/02/24 10:46:50;;;;;;;;;;;;;;;3.41;100.00;97834.88;5094415;28;20331;-78
2022/02/24 10:49:28;;;;;;;;;;;;;;;3.61;100.00;97816.56;5076940;28;19924;-79
2022/02/24 10:52:13;;;;;;;;;;;;;;;3.65;100.00;97817.31;5094777;28;19924;-79
2022/02/24 10:54:42;;;;;;;;;;;;;;;3.73;100.00;97808.59;5094432;28;19931;-79
2022/02/24 10:57:16;;;;;;;;;;;;;;;3.85;100.00;97831.38;5094692;28;19986;-78
2022/02/24 10:59:44;;;;;;;;;;;;;;;3.27;100.00;97835.00;5076346;28;19924;-78
2022/02/24 11:02:11;;;;;;;;;;;;;;;3.08;100.00;97847.34;5092931;28;19924;-79
2022/02/24 11:04:39;;;;;;;;;;;;;;;2.90;100.00;97851.38;5076408;28;19924;-79
2022/02/24 11:07:07;;;;;;;;;;;;;;;2.87;100.00;97860.44;5076470;28;19924;-78
2022/02/24 11:09:36;;;;;;;;;;;;;;;3.03;100.00;97863.53;5093282;28;20023;-82
2022/02/24 11:12:05;;;;;;;;;;;;;;;2.98;100.00;97888.78;5076644;28;19930;-82
2022/02/24 11:14:36;;;;;;;;;;;;;;;3.19;100.00;97886.72;5094485;28;20370;-81
2022/02/24 11:17:05;;;;;;;;;;;;;;;3.12;100.00;97889.47;5076136;28;20023;-81
2022/02/24 11:19:33;;;;;;;;;;;;;;;3.11;100.00;97887.91;5056829;28;19948;-81
2022/02/24 11:22:02;;;;;;;;;;;;;;;3.23;100.00;97883.91;5054303;28;19924;-79
2022/02/24 11:24:29;;;;;;;;;;;;;;;3.34;100.00;97873.59;5093914;28;19950;-79
2022/02/24 11:27:00;;;;;;;;;;;;;;;3.41;100.00;97890.09;5094568;28;19924;-79
2022/02/24 11:29:31;;;;;;;;;;;;;;;3.06;100.00;97896.63;5043154;28;20133;-79
2022/02/24 11:32:09;;;;;;;;;;;;;;;3.06;100.00;97873.78;5093954;28;19924;-79
2022/02/24 11:34:56;;;;;;;;;;;;;;;3.08;100.00;97885.97;5094224;28;20355;-80
2022/02/24 11:37:26;;;;;;;;;;;;;;;3.33;100.00;97896.88;5079201;28;19927;-79
2022/02/24 11:40:00;;;;;;;;;;;;;;;3.24;100.00;97880.75;5063360;28;19981;-79
2022/02/24 11:42:28;;;;;;;;;;;;;;;3.55;100.00;97885.28;5079067;28;20283;-80
2022/02/24 11:44:56;;;;;;;;;;;;;;;3.52;100.00;97890.81;5097023;28;20022;-80
2022/02/24 11:47:26;;;;;;;;;;;;;;;3.50;100.00;97887.66;5079490;28;19931;-80
2022/02/24 11:49:53;;;;;;;;;;;;;;;3.77;100.00;97890.66;5078886;28;19924;-80
2022/02/24 11:52:20;;;;;;;;;;;;;;;3.84;100.00;97896.91;5078958;28;19928;-80
2022/02/24 11:54:47;;;;;;;;;;;;;;;3.92;100.00;97911.44;5078694;28;20425;-80
2022/02/24 11:57:24;;;;;;;;;;;;;;;3.77;100.00;97913.53;5062647;28;20279;-80
2022/02/24 11:59:52;;;;;;;;;;;;;;;3.83;100.00;97922.19;5078733;28;20020;-80
2022/02/24 12:02:19;;;;;;;;;;;;;;;3.93;100.00;97924.84;5078711;28;19931;-80
2022/02/24 12:04:47;;;;;;;;;;;;;;;3.90;100.00;97916.59;5062014;28;20347;-79
2022/02/24 12:07:15;;;;;;;;;;;;;;;4.29;100.00;97909.53;5077259;28;20015;-80
2022/02/24 12:09:42;;;;;;;;;;;;;;;4.31;100.00;97909.13;5062254;28;19976;-79
2022/02/24 12:12:26;;;;;;;;;;;;;;;4.68;100.00;97918.19;5096644;28;19935;-80
2022/02/24 12:14:55;;;;;;;;;;;;;;;4.47;100.00;97907.38;5078448;28;19924;-79
2022/02/24 12:17:24;;;;;;;;;;;;;;;4.44;100.00;97899.91;5096542;28;20367;-79
2022/02/24 12:20:17;;;;;;;;;;;;;;;4.81;100.00;97899.91;5078195;28;20393;-79
2022/02/24 12:22:46;;;;;;;;;;;;;;;4.79;100.00;97901.47;5078473;28;20024;-80
2022/02/24 12:25:21;;;;;;;;;;;;;;;3.38;100.00;97918.53;5096311;28;19931;-79
2022/02/24 12:27:57;;;;;;;;;;;;;;;2.97;100.00;97939.66;5096339;28;20385;-79
2022/02/24 12:30:32;;;;;;;;;;;;;;;2.95;100.00;97958.56;5045263;28;20046;-79
2022/02/24 12:33:13;;;;;;;;;;;;;;;3.21;100.00;97942.28;5061575;28;20264;-79
2022/02/24 12:35:41;;;;;;;;;;;;;;;3.32;100.00;97942.22;5078109;28;20023;-79
2022/02/24 12:38:10;;;;;;;;;;;;;;;3.47;100.00;97949.22;5060354;28;19924;-80
2022/02/24 12:40:43;;;;;;;;;;;;;;;3.26;100.00;97938.31;5059475;28;19928;-79
2022/02/24 12:43:12;;;;;;;;;;;;;;;3.74;100.00;97936.47;5059070;28;19924;-78
2022/02/24 12:45:42;;;;;;;;;;;;;;;3.68;100.00;97905.69;5074448;28;20018;-79
2022/02/24 12:48:10;;;;;;;;;;;;;;;3.88;100.00;97936.34;5088762;28;19924;-79
2022/02/24 12:50:55;;;;;;;;;;;;;;;4.10;100.00;97942.47;5076844;28;19977;-79
2022/02/24 12:53:27;;;;;;;;;;;;;;;4.55;100.00;97942.06;5096885;28;19924;-80